createdAt,value
2023-05-21T00:00:08.512Z,32.96
2023-05-21T00:01:08.458Z,33.00
2023-05-21T00:02:08.483Z,32.97
2023-05-21T00:03:08.525Z,32.96
2023-05-21T00:04:08.485Z,32.97
2023-05-21T00:05:08.496Z,32.97
2023-05-21T00:06:08.668Z,32.94
2023-05-21T00:07:08.610Z,32.98
2023-05-21T00:08:08.688Z,33.00
2023-05-21T00:09:08.695Z,32.96
2023-05-21T00:10:08.758Z,32.96
2023-05-21T00:11:08.823Z,32.98
2023-05-21T00:12:08.855Z,32.97
2023-05-21T00:13:08.914Z,32.97
2023-05-21T00:14:08.977Z,32.95
2023-05-21T00:15:09.035Z,32.96
2023-05-21T00:16:09.155Z,32.97
2023-05-21T00:17:09.166Z,32.98
2023-05-21T00:18:09.318Z,32.96
2023-05-21T00:19:09.346Z,32.94
2023-05-21T00:20:09.322Z,32.95
2023-05-21T00:21:09.339Z,32.95
2023-05-21T00:22:09.431Z,32.93
2023-05-21T00:23:09.480Z,32.91
2023-05-21T00:24:09.567Z,32.90
2023-05-21T00:25:09.575Z,32.97
2023-05-21T00:26:09.599Z,32.90
2023-05-21T00:27:09.680Z,32.96
2023-05-21T00:28:09.718Z,32.97
2023-05-21T00:29:09.805Z,32.93
2023-05-21T00:30:09.848Z,32.90
2023-05-21T00:31:09.886Z,32.91
2023-05-21T00:32:10.005Z,32.93
2023-05-21T00:33:10.056Z,32.93
2023-05-21T00:34:10.077Z,32.94
2023-05-21T00:35:10.109Z,32.94
2023-05-21T00:36:10.163Z,32.90
2023-05-21T00:37:10.238Z,32.93
2023-05-21T00:38:10.255Z,32.90
2023-05-21T00:39:10.349Z,32.94
2023-05-21T00:40:10.378Z,32.93
2023-05-21T00:41:10.457Z,32.89
2023-05-21T00:42:10.527Z,32.91
2023-05-21T00:43:10.553Z,32.89
2023-05-21T00:44:10.598Z,32.89
2023-05-21T00:45:10.645Z,32.89
2023-05-21T00:46:10.818Z,32.90
2023-05-21T00:47:10.797Z,32.89
2023-05-21T00:48:10.820Z,32.90
2023-05-21T00:49:10.874Z,32.90
2023-05-21T00:50:10.948Z,32.89
2023-05-21T00:51:11.043Z,32.87
2023-05-21T00:52:11.056Z,32.89
2023-05-21T00:53:11.126Z,32.90
2023-05-21T00:54:11.202Z,32.86
2023-05-21T00:55:11.240Z,32.90
2023-05-21T00:56:11.317Z,32.91
2023-05-21T00:57:11.362Z,32.85
2023-05-21T00:58:11.413Z,32.94
2023-05-21T00:59:11.478Z,32.93
2023-05-21T01:00:11.542Z,32.91
2023-05-21T01:01:11.663Z,32.89
2023-05-21T01:02:11.719Z,32.91
2023-05-21T01:03:11.969Z,32.90
2023-05-21T01:04:11.777Z,32.88
2023-05-21T01:05:11.846Z,32.90
2023-05-21T01:06:11.898Z,32.84
2023-05-21T01:07:11.957Z,32.89
2023-05-21T01:08:12.002Z,32.89
2023-05-21T01:09:12.118Z,32.83
2023-05-21T01:10:12.163Z,32.95
2023-05-21T01:11:12.207Z,32.86
2023-05-21T01:12:12.275Z,32.89
2023-05-21T01:13:12.356Z,32.90
2023-05-21T01:14:12.403Z,32.86
2023-05-21T01:15:12.456Z,32.87
2023-05-21T01:16:12.543Z,32.85
2023-05-21T01:17:12.631Z,32.89
2023-05-21T01:18:12.679Z,32.84
2023-05-21T01:19:12.772Z,32.85
2023-05-21T01:20:12.760Z,32.86
2023-05-21T01:21:12.840Z,32.87
2023-05-21T01:22:12.886Z,32.90
2023-05-21T01:23:12.950Z,32.84
2023-05-21T01:24:12.995Z,32.87
2023-05-21T01:25:13.073Z,32.86
2023-05-21T01:26:13.141Z,32.88
2023-05-21T01:27:13.293Z,32.91
2023-05-21T01:28:13.264Z,32.91
2023-05-21T01:29:13.367Z,32.94
2023-05-21T01:30:13.362Z,32.91
2023-05-21T01:31:13.453Z,32.98
2023-05-21T01:32:13.476Z,32.88
2023-05-21T01:33:13.640Z,32.88
2023-05-21T01:34:13.653Z,32.88
2023-05-21T01:35:13.716Z,32.88
2023-05-21T01:36:13.739Z,32.90
2023-05-21T01:37:13.828Z,32.92
2023-05-21T01:38:13.876Z,32.91
2023-05-21T01:39:13.925Z,32.88
2023-05-21T01:40:14.013Z,32.92
2023-05-21T01:41:14.044Z,32.88
2023-05-21T01:42:14.136Z,32.94
2023-05-21T01:43:14.168Z,32.98
2023-05-21T01:44:14.203Z,32.92
2023-05-21T01:45:14.315Z,32.94
2023-05-21T01:46:14.440Z,32.95
2023-05-21T01:47:14.414Z,32.98
2023-05-21T01:48:14.463Z,32.94
2023-05-21T01:49:14.554Z,32.95
2023-05-21T01:50:14.588Z,32.92
2023-05-21T01:51:14.620Z,32.92
2023-05-21T01:52:14.686Z,32.91
2023-05-21T01:53:14.753Z,32.96
2023-05-21T01:54:14.801Z,32.94
2023-05-21T01:55:14.879Z,32.95
2023-05-21T01:56:14.938Z,32.91
2023-05-21T01:57:15.064Z,32.87
2023-05-21T01:58:15.088Z,32.94
2023-05-21T01:59:15.176Z,32.91
2023-05-21T02:00:15.222Z,32.92
2023-05-21T02:01:15.290Z,32.94
2023-05-21T02:02:15.375Z,32.89
2023-05-21T02:03:15.449Z,32.89
2023-05-21T02:04:15.461Z,32.89
2023-05-21T02:05:15.527Z,32.95
2023-05-21T02:06:15.614Z,32.91
2023-05-21T02:07:15.658Z,32.92
2023-05-21T02:08:15.727Z,32.93
2023-05-21T02:09:15.793Z,32.97
2023-05-21T02:10:15.932Z,32.91
2023-05-21T02:11:15.903Z,32.98
2023-05-21T02:12:16.009Z,32.95
2023-05-21T02:13:16.053Z,32.95
2023-05-21T02:14:16.139Z,32.91
2023-05-21T02:15:16.191Z,32.95
2023-05-21T02:16:16.255Z,32.96
2023-05-21T02:17:16.235Z,32.97
2023-05-21T02:18:16.286Z,32.99
2023-05-21T02:19:16.462Z,32.96
2023-05-21T02:20:16.379Z,32.95
2023-05-21T02:21:16.494Z,32.96
2023-05-21T02:22:16.503Z,32.99
2023-05-21T02:23:16.534Z,32.95
2023-05-21T02:24:16.618Z,32.93
2023-05-21T02:25:16.675Z,32.98
2023-05-21T02:26:16.713Z,32.95
2023-05-21T02:27:16.757Z,32.98
2023-05-21T02:28:16.814Z,32.95
2023-05-21T02:29:16.840Z,32.95
2023-05-21T02:30:16.922Z,32.95
2023-05-21T02:31:16.974Z,32.93
2023-05-21T02:32:17.011Z,32.93
2023-05-21T02:33:17.007Z,32.91
2023-05-21T02:34:17.107Z,32.97
2023-05-21T02:35:17.107Z,32.96
2023-05-21T02:36:17.197Z,32.93
2023-05-21T02:37:17.209Z,32.97
2023-05-21T02:38:17.233Z,33.00
2023-05-21T02:39:17.339Z,32.97
2023-05-21T02:40:17.353Z,32.96
2023-05-21T02:41:17.395Z,32.93
2023-05-21T02:42:17.461Z,32.91
2023-05-21T02:43:17.518Z,32.97
2023-05-21T02:44:17.576Z,32.98
2023-05-21T02:45:17.648Z,32.97
2023-05-21T02:46:17.770Z,32.94
2023-05-21T02:47:17.750Z,33.00
2023-05-21T02:48:17.784Z,32.97
2023-05-21T02:49:17.807Z,33.01
2023-05-21T02:50:17.880Z,32.96
2023-05-21T02:51:17.860Z,32.97
2023-05-21T02:52:17.922Z,32.98
2023-05-21T02:53:17.982Z,33.01
2023-05-21T02:54:18.036Z,33.00
2023-05-21T02:55:18.091Z,32.95
2023-05-21T02:56:18.121Z,32.96
2023-05-21T02:57:18.159Z,32.93
2023-05-21T02:58:18.187Z,32.97
2023-05-21T02:59:18.228Z,33.00
2023-05-21T03:00:18.287Z,32.97
2023-05-21T03:01:18.281Z,33.00
2023-05-21T03:02:18.407Z,32.97
2023-05-21T03:03:18.431Z,32.97
2023-05-21T03:04:18.379Z,33.00
2023-05-21T03:05:18.453Z,32.99
2023-05-21T03:06:18.474Z,32.97
2023-05-21T03:07:18.457Z,32.98
2023-05-21T03:08:18.499Z,32.97
2023-05-21T03:09:18.561Z,32.94
2023-05-21T03:10:18.554Z,32.97
2023-05-21T03:11:18.622Z,32.97
2023-05-21T03:12:18.679Z,32.97
2023-05-21T03:13:18.751Z,33.01
2023-05-21T03:14:18.760Z,32.94
2023-05-21T03:15:18.769Z,32.99
2023-05-21T03:16:18.847Z,32.97
2023-05-21T03:17:18.818Z,33.02
2023-05-21T03:18:18.848Z,32.99
2023-05-21T03:19:18.927Z,32.98
2023-05-21T03:20:19.037Z,32.98
2023-05-21T03:21:18.929Z,33.01
2023-05-21T03:22:18.937Z,32.98
2023-05-21T03:23:18.975Z,33.00
2023-05-21T03:24:19.021Z,32.97
2023-05-21T03:25:19.136Z,32.98
2023-05-21T03:26:19.142Z,32.98
2023-05-21T03:27:19.128Z,32.97
2023-05-21T03:28:19.271Z,32.97
2023-05-21T03:29:19.163Z,33.00
2023-05-21T03:30:19.229Z,32.98
2023-05-21T03:31:19.263Z,32.97
2023-05-21T03:32:19.391Z,32.95
2023-05-21T03:33:19.241Z,32.98
2023-05-21T03:34:19.244Z,32.99
2023-05-21T03:35:19.222Z,32.98
2023-05-21T03:36:19.205Z,33.02
2023-05-21T03:37:19.216Z,32.98
2023-05-21T03:38:19.220Z,32.99
2023-05-21T03:39:19.260Z,33.02
2023-05-21T03:40:19.283Z,32.98
2023-05-21T03:41:19.274Z,32.95
2023-05-21T03:42:19.303Z,33.02
2023-05-21T03:43:19.281Z,32.98
2023-05-21T03:44:19.318Z,33.02
2023-05-21T03:45:19.306Z,32.97
2023-05-21T03:46:19.396Z,32.98
2023-05-21T03:47:19.392Z,32.99
2023-05-21T03:48:19.448Z,33.02
2023-05-21T03:49:19.424Z,32.97
2023-05-21T03:50:19.461Z,32.98
2023-05-21T03:51:19.461Z,33.03
2023-05-21T03:52:19.489Z,32.97
2023-05-21T03:53:19.545Z,32.97
2023-05-21T03:54:19.549Z,33.00
2023-05-21T03:55:19.574Z,32.95
2023-05-21T03:56:19.515Z,32.98
2023-05-21T03:57:19.587Z,32.95
2023-05-21T03:58:19.574Z,33.03
2023-05-21T03:59:19.624Z,32.96
2023-05-21T04:00:19.619Z,32.96
2023-05-21T04:01:19.625Z,33.02
2023-05-21T04:02:19.665Z,32.98
2023-05-21T04:03:19.882Z,32.97
2023-05-21T04:04:19.745Z,32.96
2023-05-21T04:05:19.708Z,32.99
2023-05-21T04:06:19.729Z,32.99
2023-05-21T04:07:19.728Z,32.97
2023-05-21T04:08:19.785Z,33.03
2023-05-21T04:09:19.790Z,32.99
2023-05-21T04:10:19.801Z,32.97
2023-05-21T04:11:19.802Z,32.99
2023-05-21T04:12:19.828Z,33.00
2023-05-21T04:13:19.864Z,33.00
2023-05-21T04:14:19.869Z,32.99
2023-05-21T04:15:19.927Z,33.00
2023-05-21T04:16:19.957Z,32.99
2023-05-21T04:17:19.997Z,33.03
2023-05-21T04:18:20.049Z,32.98
2023-05-21T04:19:20.162Z,33.01
2023-05-21T04:20:20.179Z,32.97
2023-05-21T04:21:20.216Z,33.02
2023-05-21T04:22:20.239Z,32.98
2023-05-21T04:23:20.294Z,33.00
2023-05-21T04:24:20.361Z,32.99
2023-05-21T04:25:20.379Z,33.07
2023-05-21T04:26:20.400Z,32.99
2023-05-21T04:27:20.454Z,33.02
2023-05-21T04:28:20.543Z,33.00
2023-05-21T04:29:20.500Z,33.03
2023-05-21T04:30:20.572Z,33.05
2023-05-21T04:31:20.569Z,32.97
2023-05-21T04:32:20.664Z,32.99
2023-05-21T04:33:20.643Z,32.98
2023-05-21T04:34:20.675Z,32.97
2023-05-21T04:35:20.678Z,33.05
2023-05-21T04:36:20.726Z,33.06
2023-05-21T04:37:20.771Z,32.99
2023-05-21T04:38:20.903Z,33.02
2023-05-21T04:39:20.876Z,33.03
2023-05-21T04:40:20.922Z,32.97
2023-05-21T04:41:20.996Z,33.02
2023-05-21T04:42:20.992Z,33.02
2023-05-21T04:43:21.081Z,32.99
2023-05-21T04:44:21.034Z,33.02
2023-05-21T04:45:21.095Z,33.02
2023-05-21T04:46:21.184Z,33.06
2023-05-21T04:47:21.217Z,33.06
2023-05-21T04:48:21.217Z,32.95
2023-05-21T04:49:21.257Z,33.06
2023-05-21T04:50:21.290Z,33.03
2023-05-21T04:51:21.374Z,33.08
2023-05-21T04:52:21.414Z,33.05
2023-05-21T04:53:21.489Z,33.03
2023-05-21T04:54:21.506Z,32.98
2023-05-21T04:55:21.542Z,32.97
2023-05-21T04:56:21.604Z,33.02
2023-05-21T04:57:21.649Z,32.97
2023-05-21T04:58:21.722Z,33.01
2023-05-21T04:59:21.755Z,33.01
2023-05-21T05:00:21.770Z,33.01
2023-05-21T05:01:21.910Z,33.02
2023-05-21T05:02:21.916Z,33.02
2023-05-21T05:03:22.050Z,33.02
2023-05-21T05:04:22.010Z,33.00
2023-05-21T05:05:22.075Z,32.96
2023-05-21T05:06:22.127Z,32.98
2023-05-21T05:07:22.231Z,33.01
2023-05-21T05:08:22.296Z,33.02
2023-05-21T05:09:22.309Z,33.02
2023-05-21T05:10:22.336Z,33.05
2023-05-21T05:11:22.485Z,33.00
2023-05-21T05:12:22.474Z,33.02
2023-05-21T05:13:22.553Z,33.00
2023-05-21T05:14:22.682Z,32.98
2023-05-21T05:15:22.703Z,33.00
2023-05-21T05:16:22.751Z,32.98
2023-05-21T05:17:22.827Z,33.00
2023-05-21T05:18:22.911Z,32.97
2023-05-21T05:19:22.979Z,32.99
2023-05-21T05:20:23.040Z,32.91
2023-05-21T05:21:23.011Z,32.93
2023-05-21T05:22:23.060Z,32.91
2023-05-21T05:23:23.078Z,32.88
2023-05-21T05:24:23.172Z,32.93
2023-05-21T05:25:23.205Z,32.95
2023-05-21T05:26:23.269Z,32.90
2023-05-21T05:27:23.388Z,32.87
2023-05-21T05:28:23.398Z,32.97
2023-05-21T05:29:23.456Z,32.96
2023-05-21T05:30:23.513Z,32.96
2023-05-21T05:31:23.663Z,32.95
2023-05-21T05:32:23.694Z,32.96
2023-05-21T05:33:23.702Z,32.92
2023-05-21T05:34:23.753Z,32.96
2023-05-21T05:35:23.780Z,32.91
2023-05-21T05:36:23.859Z,32.91
2023-05-21T05:37:23.901Z,32.85
2023-05-21T05:38:23.978Z,32.88
2023-05-21T05:39:24.001Z,32.89
2023-05-21T05:40:24.100Z,32.92
2023-05-21T05:41:24.166Z,32.92
2023-05-21T05:42:24.181Z,32.96
2023-05-21T05:43:24.213Z,32.92
2023-05-21T05:44:24.296Z,32.89
2023-05-21T05:45:24.327Z,32.85
2023-05-21T05:46:24.390Z,32.91
2023-05-21T05:47:24.568Z,32.87
2023-05-21T05:48:24.515Z,32.89
2023-05-21T05:49:24.523Z,32.91
2023-05-21T05:50:24.570Z,32.89
2023-05-21T05:51:24.638Z,32.88
2023-05-21T05:52:24.701Z,32.88
2023-05-21T05:53:24.751Z,32.91
2023-05-21T05:54:24.803Z,32.87
2023-05-21T05:55:24.886Z,32.89
2023-05-21T05:56:24.869Z,32.89
2023-05-21T05:57:24.917Z,32.91
2023-05-21T05:58:25.046Z,32.83
2023-05-21T05:59:25.008Z,32.88
2023-05-21T06:00:25.100Z,32.87
2023-05-21T06:01:25.149Z,32.85
2023-05-21T06:02:25.295Z,32.84
2023-05-21T06:03:25.427Z,32.88
2023-05-21T06:04:25.268Z,32.85
2023-05-21T06:05:25.403Z,32.84
2023-05-21T06:06:25.354Z,32.83
2023-05-21T06:07:25.410Z,32.80
2023-05-21T06:08:25.553Z,32.81
2023-05-21T06:09:25.505Z,32.81
2023-05-21T06:10:25.585Z,32.83
2023-05-21T06:11:25.668Z,32.81
2023-05-21T06:12:25.657Z,32.83
2023-05-21T06:13:25.860Z,32.81
2023-05-21T06:14:25.791Z,32.77
2023-05-21T06:15:25.765Z,32.82
2023-05-21T06:16:25.904Z,32.80
2023-05-21T06:17:25.947Z,32.80
2023-05-21T06:18:25.951Z,32.80
2023-05-21T06:19:26.188Z,32.80
2023-05-21T06:20:26.005Z,32.79
2023-05-21T06:21:26.056Z,32.80
2023-05-21T06:22:26.105Z,32.81
2023-05-21T06:23:26.140Z,32.76
2023-05-21T06:24:26.199Z,32.76
2023-05-21T06:25:26.229Z,32.76
2023-05-21T06:26:26.259Z,32.78
2023-05-21T06:27:26.326Z,32.76
2023-05-21T06:28:26.360Z,32.69
2023-05-21T06:29:26.403Z,32.72
2023-05-21T06:30:26.485Z,32.72
2023-05-21T06:31:26.494Z,32.72
2023-05-21T06:32:26.626Z,32.74
2023-05-21T06:33:26.723Z,32.76
2023-05-21T06:34:26.650Z,32.72
2023-05-21T06:35:26.679Z,32.71
2023-05-21T06:36:26.796Z,32.72
2023-05-21T06:37:26.847Z,32.74
2023-05-21T06:38:26.848Z,32.74
2023-05-21T06:39:26.912Z,32.72
2023-05-21T06:40:26.891Z,32.68
2023-05-21T06:41:26.955Z,32.71
2023-05-21T06:42:27.548Z,32.78
2023-05-21T06:43:27.060Z,32.73
2023-05-21T06:44:27.090Z,32.72
2023-05-21T06:45:27.163Z,32.76
2023-05-21T06:46:27.257Z,32.72
2023-05-21T06:47:27.239Z,32.78
2023-05-21T06:48:27.286Z,32.72
2023-05-21T06:49:27.322Z,32.69
2023-05-21T06:50:27.413Z,32.76
2023-05-21T06:51:27.412Z,32.74
2023-05-21T06:52:27.472Z,32.71
2023-05-21T06:53:27.519Z,32.72
2023-05-21T06:54:27.575Z,32.75
2023-05-21T06:55:27.603Z,32.72
2023-05-21T06:56:27.675Z,32.72
2023-05-21T06:57:27.674Z,32.75
2023-05-21T06:58:27.727Z,32.74
2023-05-21T06:59:27.807Z,32.74
2023-05-21T07:00:27.888Z,32.70
2023-05-21T07:01:27.938Z,32.74
2023-05-21T07:02:28.037Z,32.78
2023-05-21T07:03:28.129Z,32.76
2023-05-21T07:04:28.002Z,32.75
2023-05-21T07:05:28.026Z,32.74
2023-05-21T07:06:28.083Z,32.76
2023-05-21T07:07:28.135Z,32.78
2023-05-21T07:08:28.180Z,32.76
2023-05-21T07:09:28.212Z,32.76
2023-05-21T07:10:28.251Z,32.74
2023-05-21T07:11:28.294Z,32.74
2023-05-21T07:12:28.316Z,32.75
2023-05-21T07:13:28.367Z,32.74
2023-05-21T07:14:28.409Z,32.77
2023-05-21T07:15:28.482Z,32.71
2023-05-21T07:16:28.539Z,32.74
2023-05-21T07:17:28.605Z,32.78
2023-05-21T07:18:28.611Z,32.74
2023-05-21T07:19:28.785Z,32.74
2023-05-21T07:20:28.670Z,32.74
2023-05-21T07:21:28.730Z,32.75
2023-05-21T07:22:28.774Z,32.75
2023-05-21T07:23:28.856Z,32.77
2023-05-21T07:24:28.903Z,32.74
2023-05-21T07:25:28.905Z,32.74
2023-05-21T07:26:28.956Z,32.74
2023-05-21T07:27:29.026Z,32.70
2023-05-21T07:28:29.017Z,32.68
2023-05-21T07:29:29.088Z,32.67
2023-05-21T07:30:29.106Z,32.68
2023-05-21T07:31:29.301Z,32.71
2023-05-21T07:32:29.362Z,32.68
2023-05-21T07:33:29.263Z,32.69
2023-05-21T07:34:29.332Z,32.73
2023-05-21T07:35:29.343Z,32.73
2023-05-21T07:36:29.460Z,32.65
2023-05-21T07:37:29.508Z,32.70
2023-05-21T07:38:29.497Z,32.65
2023-05-21T07:39:29.518Z,32.64
2023-05-21T07:40:29.574Z,32.68
2023-05-21T07:41:29.620Z,32.64
2023-05-21T07:42:29.699Z,32.68
2023-05-21T07:43:29.705Z,32.66
2023-05-21T07:44:29.742Z,32.65
2023-05-21T07:45:29.808Z,32.64
2023-05-21T07:46:29.905Z,32.65
2023-05-21T07:47:29.874Z,32.62
2023-05-21T07:48:29.900Z,32.65
2023-05-21T07:49:29.952Z,32.64
2023-05-21T07:50:30.013Z,32.62
2023-05-21T07:51:30.021Z,32.64
2023-05-21T07:52:30.076Z,32.65
2023-05-21T07:53:30.080Z,32.59
2023-05-21T07:54:30.128Z,32.62
2023-05-21T07:55:30.148Z,32.60
2023-05-21T07:56:30.143Z,32.61
2023-05-21T07:57:30.224Z,32.62
2023-05-21T07:58:30.254Z,32.63
2023-05-21T07:59:30.305Z,32.59
2023-05-21T08:00:30.352Z,32.52
2023-05-21T08:01:30.361Z,32.60
2023-05-21T08:02:30.565Z,32.62
2023-05-21T08:03:30.568Z,32.56
2023-05-21T08:04:30.689Z,32.56
2023-05-21T08:05:30.635Z,32.53
2023-05-21T08:06:30.623Z,32.55
2023-05-21T08:07:30.687Z,32.58
2023-05-21T08:08:30.715Z,32.55
2023-05-21T08:09:30.741Z,32.53
2023-05-21T08:10:30.805Z,32.58
2023-05-21T08:11:30.867Z,32.58
2023-05-21T08:12:30.869Z,32.58
2023-05-21T08:13:30.948Z,32.52
2023-05-21T08:14:30.977Z,32.57
2023-05-21T08:15:31.053Z,32.55
2023-05-21T08:16:31.117Z,32.55
2023-05-21T08:17:31.215Z,32.51
2023-05-21T08:18:31.175Z,32.49
2023-05-21T08:19:31.412Z,32.51
2023-05-21T08:20:31.290Z,32.49
2023-05-21T08:21:31.336Z,32.49
2023-05-21T08:22:31.416Z,32.47
2023-05-21T08:23:31.418Z,32.50
2023-05-21T08:24:31.452Z,32.48
2023-05-21T08:25:31.513Z,32.47
2023-05-21T08:26:31.538Z,32.47
2023-05-21T08:27:31.586Z,32.53
2023-05-21T08:28:31.654Z,32.47
2023-05-21T08:29:31.703Z,32.53
2023-05-21T08:30:31.776Z,32.47
2023-05-21T08:31:31.792Z,32.53
2023-05-21T08:32:31.832Z,32.46
2023-05-21T08:33:31.829Z,32.47
2023-05-21T08:34:31.908Z,32.51
2023-05-21T08:35:31.951Z,32.51
2023-05-21T08:36:32.022Z,32.51
2023-05-21T08:37:32.035Z,32.47
2023-05-21T08:38:32.071Z,32.47
2023-05-21T08:39:32.079Z,32.51
2023-05-21T08:40:32.142Z,32.50
2023-05-21T08:41:32.205Z,32.47
2023-05-21T08:42:37.111Z,32.45
2023-05-21T08:43:33.238Z,32.45
2023-05-21T08:44:32.200Z,32.46
2023-05-21T08:45:32.228Z,32.46
2023-05-21T08:46:32.195Z,32.46
2023-05-21T08:47:32.250Z,32.47
2023-05-21T08:48:32.216Z,32.43
2023-05-21T08:49:32.201Z,32.45
2023-05-21T08:50:32.141Z,32.43
2023-05-21T08:51:32.157Z,32.43
2023-05-21T08:52:32.183Z,32.46
2023-05-21T08:53:32.172Z,32.41
2023-05-21T08:54:32.175Z,32.45
2023-05-21T08:55:32.195Z,32.46
2023-05-21T08:56:32.265Z,32.41
2023-05-21T08:57:32.306Z,32.39
2023-05-21T08:58:32.309Z,32.41
2023-05-21T08:59:32.385Z,32.38
2023-05-21T09:00:32.359Z,32.47
2023-05-21T09:01:32.480Z,32.45
2023-05-21T09:02:32.493Z,32.41
2023-05-21T09:03:32.552Z,32.42
2023-05-21T09:04:32.567Z,32.46
2023-05-21T09:05:32.516Z,32.42
2023-05-21T09:06:32.603Z,32.46
2023-05-21T09:07:32.570Z,32.41
2023-05-21T09:08:32.646Z,32.41
2023-05-21T09:09:32.639Z,32.42
2023-05-21T09:10:32.666Z,32.46
2023-05-21T09:11:32.654Z,32.42
2023-05-21T09:12:32.722Z,32.44
2023-05-21T09:13:32.804Z,32.45
2023-05-21T09:14:32.797Z,32.42
2023-05-21T09:15:32.851Z,32.46
2023-05-21T09:16:32.899Z,32.45
2023-05-21T09:17:32.949Z,32.40
2023-05-21T09:18:32.973Z,32.41
2023-05-21T09:19:33.151Z,32.45
2023-05-21T09:20:33.080Z,32.49
2023-05-21T09:21:33.078Z,32.46
2023-05-21T09:22:33.163Z,32.41
2023-05-21T09:23:33.149Z,32.40
2023-05-21T09:24:35.713Z,32.41
2023-05-21T09:25:33.282Z,32.42
2023-05-21T09:26:33.178Z,32.41
2023-05-21T09:27:33.187Z,32.40
2023-05-21T09:28:33.188Z,32.41
2023-05-21T09:29:33.196Z,32.41
2023-05-21T09:30:35.957Z,32.42
2023-05-21T09:31:33.291Z,32.45
2023-05-21T09:32:33.171Z,32.42
2023-05-21T09:33:33.175Z,32.41
2023-05-21T09:34:33.137Z,32.41
2023-05-21T09:35:33.124Z,32.40
2023-05-21T09:36:33.193Z,32.37
2023-05-21T09:37:33.157Z,32.38
2023-05-21T09:38:33.137Z,32.40
2023-05-21T09:39:33.084Z,32.39
2023-05-21T09:40:33.101Z,32.36
2023-05-21T09:41:33.119Z,32.37
2023-05-21T09:42:33.115Z,32.39
2023-05-21T09:43:33.101Z,32.37
2023-05-21T09:44:33.103Z,32.40
2023-05-21T09:45:33.083Z,32.35
2023-05-21T09:46:33.053Z,32.35
2023-05-21T09:47:33.058Z,32.37
2023-05-21T09:48:33.050Z,32.35
2023-05-21T09:49:33.090Z,32.37
2023-05-21T09:50:33.037Z,32.37
2023-05-21T09:51:33.100Z,32.36
2023-05-21T09:52:33.045Z,32.36
2023-05-21T09:53:33.009Z,32.38
2023-05-21T09:54:32.985Z,32.36
2023-05-21T09:55:32.976Z,32.35
2023-05-21T09:56:33.012Z,32.35
2023-05-21T09:57:32.972Z,32.35
2023-05-21T09:58:32.987Z,32.37
2023-05-21T09:59:33.028Z,32.35
2023-05-21T10:00:32.943Z,32.36
2023-05-21T10:01:33.044Z,32.35
2023-05-21T10:02:32.952Z,32.32
2023-05-21T10:03:32.928Z,32.28
2023-05-21T10:04:33.012Z,32.30
2023-05-21T10:05:32.941Z,32.32
2023-05-21T10:06:32.939Z,32.26
2023-05-21T10:07:32.928Z,32.35
2023-05-21T10:08:32.947Z,32.34
2023-05-21T10:09:32.918Z,32.33
2023-05-21T10:10:32.891Z,32.30
2023-05-21T10:11:32.880Z,32.35
2023-05-21T10:12:32.880Z,32.34
2023-05-21T10:13:32.885Z,32.37
2023-05-21T10:14:32.868Z,32.34
2023-05-21T10:15:32.900Z,32.30
2023-05-21T10:16:32.869Z,32.37
2023-05-21T10:17:32.846Z,32.38
2023-05-21T10:18:32.871Z,32.36
2023-05-21T10:19:32.930Z,32.33
2023-05-21T10:20:32.826Z,32.33
2023-05-21T10:21:32.832Z,32.31
2023-05-21T10:22:32.847Z,32.34
2023-05-21T10:23:32.830Z,32.34
2023-05-21T10:24:32.780Z,32.36
2023-05-21T10:25:32.847Z,32.32
2023-05-21T10:26:32.823Z,32.35
2023-05-21T10:27:33.058Z,32.32
2023-05-21T10:28:32.780Z,32.35
2023-05-21T10:29:32.797Z,32.32
2023-05-21T10:30:32.793Z,32.37
2023-05-21T10:31:32.757Z,32.35
2023-05-21T10:32:32.787Z,32.32
2023-05-21T10:33:32.835Z,32.33
2023-05-21T10:34:32.752Z,32.33
2023-05-21T10:35:32.769Z,32.35
2023-05-21T10:36:32.750Z,32.35
2023-05-21T10:37:32.749Z,32.32
2023-05-21T10:38:32.731Z,32.32
2023-05-21T10:39:32.738Z,32.33
2023-05-21T10:40:32.674Z,32.34
2023-05-21T10:41:32.676Z,32.31
2023-05-21T10:42:32.690Z,32.31
2023-05-21T10:43:32.695Z,32.32
2023-05-21T10:44:32.676Z,32.29
2023-05-21T10:45:32.744Z,32.29
2023-05-21T10:46:32.707Z,32.25
2023-05-21T10:47:32.640Z,32.30
2023-05-21T10:48:32.619Z,32.32
2023-05-21T10:49:32.658Z,32.31
2023-05-21T10:50:32.621Z,32.31
2023-05-21T10:51:32.625Z,32.32
2023-05-21T10:52:32.673Z,32.31
2023-05-21T10:53:32.624Z,32.35
2023-05-21T10:54:32.643Z,32.35
2023-05-21T10:55:32.654Z,32.36
2023-05-21T10:56:32.673Z,32.31
2023-05-21T10:57:32.673Z,32.31
2023-05-21T10:58:32.691Z,32.32
2023-05-21T10:59:32.671Z,32.34
2023-05-21T11:00:32.692Z,32.38
2023-05-21T11:01:32.727Z,32.32
2023-05-21T11:02:32.780Z,32.32
2023-05-21T11:03:35.026Z,32.35
2023-05-21T11:04:32.725Z,32.35
2023-05-21T11:05:32.746Z,32.34
2023-05-21T11:06:32.727Z,32.33
2023-05-21T11:07:32.671Z,32.37
2023-05-21T11:08:32.741Z,32.32
2023-05-21T11:09:32.742Z,32.34
2023-05-21T11:10:32.694Z,32.35
2023-05-21T11:11:32.674Z,32.33
2023-05-21T11:12:32.749Z,32.29
2023-05-21T11:13:32.676Z,32.33
2023-05-21T11:14:32.768Z,32.34
2023-05-21T11:15:32.625Z,32.32
2023-05-21T11:16:32.681Z,32.36
2023-05-21T11:17:32.649Z,32.36
2023-05-21T11:18:32.660Z,32.33
2023-05-21T11:19:34.114Z,32.35
2023-05-21T11:20:32.641Z,32.32
2023-05-21T11:21:32.622Z,32.32
2023-05-21T11:22:32.584Z,32.35
2023-05-21T11:23:32.587Z,32.32
2023-05-21T11:24:32.592Z,32.32
2023-05-21T11:25:32.598Z,32.33
2023-05-21T11:26:32.591Z,32.30
2023-05-21T11:27:32.624Z,32.30
2023-05-21T11:28:32.573Z,32.28
2023-05-21T11:29:32.530Z,32.30
2023-05-21T11:30:35.223Z,32.35
2023-05-21T11:31:32.557Z,32.31
2023-05-21T11:32:32.696Z,32.33
2023-05-21T11:33:32.551Z,32.35
2023-05-21T11:34:32.527Z,32.32
2023-05-21T11:35:32.513Z,32.35
2023-05-21T11:36:34.710Z,32.30
2023-05-21T11:37:32.520Z,32.37
2023-05-21T11:38:32.528Z,32.31
2023-05-21T11:39:32.497Z,32.31
2023-05-21T11:40:32.491Z,32.28
2023-05-21T11:41:32.498Z,32.30
2023-05-21T11:42:32.457Z,32.30
2023-05-21T11:43:32.504Z,32.34
2023-05-21T11:44:32.434Z,32.29
2023-05-21T11:45:32.473Z,32.31
2023-05-21T11:46:32.513Z,32.32
2023-05-21T11:47:32.551Z,32.35
2023-05-21T11:48:32.746Z,32.29
2023-05-21T11:49:32.461Z,32.29
2023-05-21T11:50:32.432Z,32.32
2023-05-21T11:51:32.435Z,32.29
2023-05-21T11:52:32.392Z,32.33
2023-05-21T11:53:32.402Z,32.30
2023-05-21T11:54:32.386Z,32.29
2023-05-21T11:55:32.362Z,32.31
2023-05-21T11:56:32.398Z,32.29
2023-05-21T11:57:32.371Z,32.30
2023-05-21T11:58:32.420Z,32.34
2023-05-21T11:59:32.367Z,32.35
2023-05-21T12:00:32.335Z,32.34
2023-05-21T12:01:32.359Z,32.34
2023-05-21T12:02:32.678Z,32.37
2023-05-21T12:03:32.392Z,32.36
2023-05-21T12:04:32.319Z,32.38
2023-05-21T12:05:32.347Z,32.37
2023-05-21T12:06:32.352Z,32.38
2023-05-21T12:07:32.334Z,32.41
2023-05-21T12:08:32.328Z,32.38
2023-05-21T12:09:32.330Z,32.40
2023-05-21T12:10:32.280Z,32.38
2023-05-21T12:11:32.300Z,32.41
2023-05-21T12:12:42.199Z,32.41
2023-05-21T12:13:33.293Z,32.38
2023-05-21T12:14:32.280Z,32.40
2023-05-21T12:15:32.240Z,32.41
2023-05-21T12:16:32.292Z,32.34
2023-05-21T12:17:32.338Z,32.41
2023-05-21T12:18:32.238Z,32.39
2023-05-21T12:19:32.268Z,32.36
2023-05-21T12:20:32.213Z,32.36
2023-05-21T12:21:32.217Z,32.37
2023-05-21T12:22:32.205Z,32.41
2023-05-21T12:23:32.220Z,32.37
2023-05-21T12:24:32.192Z,32.39
2023-05-21T12:25:32.191Z,32.35
2023-05-21T12:26:32.170Z,32.38
2023-05-21T12:27:33.512Z,32.36
2023-05-21T12:28:32.162Z,32.34
2023-05-21T12:29:32.183Z,32.36
2023-05-21T12:30:32.126Z,32.31
2023-05-21T12:31:32.139Z,32.32
2023-05-21T12:32:32.205Z,32.36
2023-05-21T12:33:32.105Z,32.35
2023-05-21T12:34:32.131Z,32.34
2023-05-21T12:35:32.253Z,32.32
2023-05-21T12:36:32.121Z,32.34
2023-05-21T12:37:32.110Z,32.30
2023-05-21T12:38:32.074Z,32.31
2023-05-21T12:39:32.099Z,32.31
2023-05-21T12:40:32.100Z,32.35
2023-05-21T12:41:32.097Z,32.33
2023-05-21T12:42:32.093Z,32.27
2023-05-21T12:43:32.059Z,32.29
2023-05-21T12:44:32.092Z,32.30
2023-05-21T12:45:32.072Z,32.30
2023-05-21T12:46:32.078Z,32.33
2023-05-21T12:47:32.060Z,32.30
2023-05-21T12:48:32.043Z,32.32
2023-05-21T12:49:32.025Z,32.29
2023-05-21T12:50:31.997Z,32.27
2023-05-21T12:51:32.014Z,32.25
2023-05-21T12:52:32.030Z,32.25